Time;durP1;ratioP1;P1;durP2;ratioP2;P2;SDS_P1;SDS_P2;PMS_P1;PMS_P2;Temp;Humidity;BMP_temperature;BMP_pressure;BME280_temperature;BME280_humidity;BME280_pressure;Samples;Min_cycle;Max_cycle;Signal;HPM_P1;HPM_P2
2022/02/07 00:01:56;;;;;;;12.80;1.38;;;3.10;99.90;;;;;;5077173;28;20020;-68
2022/02/07 00:04:30;;;;;;;3.08;0.65;;;3.10;99.90;;;;;;5076942;28;20024;-68
2022/02/07 00:07:00;;;;;;;12.63;1.42;;;3.10;99.90;;;;;;5077144;28;20413;-68
2022/02/07 00:09:29;;;;;;;11.02;1.23;;;3.10;99.90;;;;;;5077104;28;20024;-68
2022/02/07 00:11:57;;;;;;;6.95;1.23;;;3.10;99.90;;;;;;5077110;28;20052;-68
2022/02/07 00:14:32;;;;;;;4.38;1.40;;;3.10;99.90;;;;;;5068757;28;20045;-68
2022/02/07 00:17:01;;;;;;;5.07;1.10;;;3.20;99.90;;;;;;5056678;28;20413;-68
2022/02/07 00:19:28;;;;;;;2.72;0.70;;;3.20;99.90;;;;;;5057417;28;20070;-67
2022/02/07 00:21:59;;;;;;;4.75;0.93;;;3.10;99.90;;;;;;5059965;28;20100;-68
2022/02/07 00:24:27;;;;;;;4.88;1.08;;;2.80;99.90;;;;;;5060436;28;20024;-68
2022/02/07 00:26:55;;;;;;;2.97;1.15;;;2.60;99.90;;;;;;5060530;28;20025;-68
2022/02/07 00:29:24;;;;;;;0.22;0.10;;;2.40;99.90;;;;;;5059786;28;20104;-68
2022/02/07 00:31:51;;;;;;;0.73;0.30;;;2.20;99.90;;;;;;5059809;28;20021;-68
2022/02/07 00:34:20;;;;;;;1.80;0.43;;;1.90;99.90;;;;;;5060208;28;20397;-67
2022/02/07 00:36:48;;;;;;;2.35;1.27;;;1.80;99.90;;;;;;5059745;28;20067;-68
2022/02/07 00:39:24;;;;;;;10.85;1.15;;;1.70;99.90;;;;;;5060285;28;20025;-68
2022/02/07 00:41:59;;;;;;;2.35;0.40;;;1.80;99.90;;;;;;5060564;28;20021;-68
2022/02/07 00:44:27;;;;;;;2.03;0.22;;;1.80;99.90;;;;;;5060274;28;20039;-67
2022/02/07 00:46:58;;;;;;;2.20;0.30;;;1.70;99.90;;;;;;5060586;28;20070;-67
2022/02/07 00:49:29;;;;;;;2.08;0.28;;;1.60;99.90;;;;;;5060361;28;20085;-67
2022/02/07 00:51:56;;;;;;;3.80;0.40;;;1.50;99.90;;;;;;5060353;28;20028;-67
2022/02/07 00:54:24;;;;;;;1.52;0.43;;;1.40;99.90;;;;;;5042406;28;20021;-67
2022/02/07 00:56:51;;;;;;;3.92;0.60;;;1.40;99.90;;;;;;5042702;28;20025;-68
2022/02/07 00:59:19;;;;;;;2.80;0.40;;;1.40;99.90;;;;;;5059452;28;20104;-68
2022/02/07 01:01:47;;;;;;;0.80;0.40;;;1.40;99.90;;;;;;5059218;28;20091;-68
2022/02/07 01:04:14;;;;;;;3.90;0.50;;;1.30;99.90;;;;;;5059696;28;20051;-68
2022/02/07 01:06:42;;;;;;;0.63;0.20;;;1.30;99.90;;;;;;5059258;28;20067;-68
2022/02/07 01:09:20;;;;;;;4.57;0.38;;;1.40;99.90;;;;;;5041360;28;20112;-68
2022/02/07 01:14:39;;;;;;;2.03;0.55;;;1.30;99.90;;;;;;5058815;28;20053;-68
2022/02/07 01:55:11;;;;;;;6.78;1.00;;;2.00;99.90;;;;;;5058131;28;20090;-68
2022/02/07 01:57:44;;;;;;;2.78;0.70;;;2.00;99.90;;;;;;5058395;28;20116;-68
2022/02/07 02:00:16;;;;;;;6.53;0.93;;;2.10;99.90;;;;;;5058347;28;20017;-68
2022/02/07 02:02:43;;;;;;;3.97;0.43;;;2.10;99.90;;;;;;5058869;28;20022;-68
2022/02/07 02:05:18;;;;;;;0.43;0.28;;;2.10;99.90;;;;;;5058931;28;20028;-68
2022/02/07 02:07:51;;;;;;;5.18;1.10;;;2.10;99.90;;;;;;5041626;28;20040;-68
2022/02/07 02:10:18;;;;;;;1.85;0.40;;;2.10;99.90;;;;;;5041144;28;20025;-68
2022/02/07 02:13:10;;;;;;;1.80;0.38;;;2.10;99.90;;;;;;5059321;28;20051;-68
2022/02/07 02:38:04;;;;;;;11.18;1.17;;;2.30;99.90;;;;;;5057906;28;20021;-68
2022/02/07 02:45:46;;;;;;;5.55;0.60;;;2.30;99.90;;;;;;5058240;28;20321;-68
2022/02/07 02:48:22;;;;;;;5.28;0.90;;;2.20;99.90;;;;;;5040374;28;20060;-68
2022/02/07 02:50:54;;;;;;;2.38;0.70;;;2.20;99.90;;;;;;5057972;28;20103;-68
2022/02/07 02:53:22;;;;;;;3.97;0.75;;;2.20;99.90;;;;;;5057672;28;20033;-68
2022/02/07 02:55:51;;;;;;;7.63;1.23;;;2.10;99.90;;;;;;5058098;28;20021;-68
2022/02/07 02:58:21;;;;;;;1.45;0.63;;;2.20;99.90;;;;;;5058150;28;20025;-67
2022/02/07 03:00:50;;;;;;;8.15;1.00;;;2.20;99.90;;;;;;5058487;28;20021;-68
2022/02/07 03:03:17;;;;;;;1.38;0.57;;;2.20;99.90;;;;;;5057822;28;20028;-67
2022/02/07 03:05:46;;;;;;;2.22;0.60;;;2.30;99.90;;;;;;5058160;28;20413;-68
2022/02/07 03:08:15;;;;;;;1.00;0.30;;;2.30;99.90;;;;;;5056761;28;20349;-67
2022/02/07 03:18:37;;;;;;;8.75;1.13;;;2.00;99.90;;;;;;5056997;28;20066;-67
2022/02/07 03:21:05;;;;;;;5.40;0.95;;;2.00;99.90;;;;;;5056665;28;20437;-67
2022/02/07 03:23:33;;;;;;;3.28;0.82;;;2.00;99.90;;;;;;5057136;28;20021;-67
2022/02/07 03:26:01;;;;;;;3.85;0.93;;;2.00;99.90;;;;;;5057311;28;20021;-67
2022/02/07 03:28:28;;;;;;;5.65;0.77;;;2.00;99.90;;;;;;5056758;28;20025;-68
2022/02/07 03:30:56;;;;;;;6.72;0.80;;;2.00;99.90;;;;;;5057761;28;20025;-67
2022/02/07 03:33:24;;;;;;;10.02;1.02;;;2.00;99.90;;;;;;5057623;28;20075;-67
2022/02/07 03:35:53;;;;;;;7.15;1.45;;;2.00;99.90;;;;;;5058228;28;20421;-67
2022/02/07 03:38:22;;;;;;;3.40;0.68;;;2.10;99.90;;;;;;5058064;28;20013;-67
2022/02/07 03:40:49;;;;;;;4.65;0.95;;;2.10;99.90;;;;;;5057416;28;20028;-68
2022/02/07 03:43:16;;;;;;;14.18;1.73;;;2.10;99.90;;;;;;5057756;28;20025;-68
2022/02/07 03:45:44;;;;;;;10.45;1.50;;;2.20;99.90;;;;;;5039566;28;20025;-68
2022/02/07 03:48:11;;;;;;;6.93;1.55;;;2.20;99.90;;;;;;5057534;28;20021;-68
2022/02/07 03:50:39;;;;;;;7.35;1.50;;;2.20;99.90;;;;;;5056262;28;20045;-67
2022/02/07 03:53:06;;;;;;;5.45;1.10;;;2.20;99.90;;;;;;5038449;28;20421;-68
2022/02/07 03:55:33;;;;;;;9.23;1.75;;;2.20;99.90;;;;;;5041476;28;20032;-67
2022/02/07 03:58:00;;;;;;;5.00;1.00;;;2.20;99.90;;;;;;5042755;28;20017;-68
2022/02/07 04:00:28;;;;;;;6.45;0.82;;;2.20;99.90;;;;;;5060926;28;20017;-68
2022/02/07 04:02:58;;;;;;;5.53;1.42;;;2.20;99.90;;;;;;5042584;28;20074;-68
2022/02/07 04:08:12;;;;;;;8.90;1.58;;;2.10;99.90;;;;;;5060212;28;20171;-68
2022/02/07 04:10:57;;;;;;;8.85;1.38;;;2.10;99.90;;;;;;5060401;28;20029;-68
2022/02/07 04:13:31;;;;;;;12.55;1.45;;;2.10;99.90;;;;;;5061585;28;20028;-67
2022/02/07 04:16:01;;;;;;;7.28;1.52;;;2.20;99.90;;;;;;5061348;28;20033;-68
2022/02/07 04:18:34;;;;;;;4.40;0.80;;;2.20;99.90;;;;;;5060974;28;20403;-68
2022/02/07 04:21:04;;;;;;;13.57;1.10;;;2.20;99.90;;;;;;5043180;28;20020;-68
2022/02/07 04:23:31;;;;;;;11.23;1.38;;;2.20;99.90;;;;;;5060861;28;20028;-68
2022/02/07 04:25:58;;;;;;;8.85;1.20;;;2.20;99.90;;;;;;5043298;28;20021;-68
2022/02/07 04:28:26;;;;;;;6.07;1.42;;;2.20;99.90;;;;;;5061262;28;20104;-68
2022/02/07 04:30:54;;;;;;;14.63;1.80;;;2.30;99.90;;;;;;5060541;28;20040;-68
2022/02/07 04:33:22;;;;;;;4.95;1.30;;;2.30;99.90;;;;;;5041956;28;20025;-68
2022/02/07 04:35:49;;;;;;;3.35;0.70;;;2.30;99.90;;;;;;5060393;28;20025;-68
2022/02/07 04:38:16;;;;;;;9.60;1.17;;;2.40;99.90;;;;;;5060187;28;20369;-68
2022/02/07 04:40:44;;;;;;;6.35;1.98;;;2.40;99.90;;;;;;5059665;28;20027;-68
2022/02/07 04:43:14;;;;;;;2.97;0.52;;;2.50;99.90;;;;;;5060140;28;20455;-68
2022/02/07 04:45:57;;;;;;;7.63;1.73;;;2.60;99.90;;;;;;5060493;28;20060;-67
2022/02/07 04:48:41;;;;;;;7.60;1.58;;;2.70;99.90;;;;;;5059363;28;20119;-68
2022/02/07 04:51:37;;;;;;;3.70;1.52;;;2.70;99.90;;;;;;5060288;28;20035;-68
2022/02/07 04:59:24;;;;;;;19.30;2.55;;;2.60;99.90;;;;;;5060217;28;20057;-68
2022/02/07 05:01:56;;;;;;;14.82;2.15;;;2.60;99.90;;;;;;5060122;28;20052;-68
2022/02/07 05:04:33;;;;;;;6.30;1.50;;;2.60;99.90;;;;;;5060337;28;20025;-67
2022/02/07 05:15:18;;;;;;;14.25;3.58;;;2.50;99.90;;;;;;5058870;28;20345;-67
2022/02/07 05:17:45;;;;;;;9.68;2.22;;;2.50;99.90;;;;;;5041269;28;20021;-68
2022/02/07 05:20:13;;;;;;;7.43;1.20;;;2.40;99.90;;;;;;5041145;28;20049;-68
2022/02/07 05:22:41;;;;;;;5.07;1.10;;;2.50;99.90;;;;;;5059560;28;20385;-68
2022/02/07 05:25:09;;;;;;;7.57;1.30;;;2.50;99.90;;;;;;5059286;28;20036;-68
2022/02/07 05:27:36;;;;;;;13.70;1.67;;;2.60;99.90;;;;;;5041063;28;20357;-68
2022/02/07 05:30:06;;;;;;;8.30;1.95;;;2.50;99.90;;;;;;5040992;28;20036;-68
2022/02/07 05:32:34;;;;;;;5.78;1.27;;;2.60;99.90;;;;;;5058923;28;20082;-68
2022/02/07 05:35:02;;;;;;;7.70;1.25;;;2.60;99.90;;;;;;5059090;28;20025;-68
2022/02/07 05:37:32;;;;;;;7.18;1.50;;;2.70;99.90;;;;;;5041727;28;20116;-68
2022/02/07 05:40:08;;;;;;;9.93;1.38;;;2.70;99.90;;;;;;5060207;28;20052;-68
2022/02/07 05:42:38;;;;;;;15.32;1.98;;;2.70;99.90;;;;;;5060184;28;20021;-68
2022/02/07 05:45:07;;;;;;;9.82;1.35;;;2.70;99.90;;;;;;5041678;28;20329;-67
2022/02/07 05:47:36;;;;;;;7.97;1.38;;;2.80;99.90;;;;;;5059387;28;20029;-68
2022/02/07 05:50:05;;;;;;;8.13;2.45;;;2.80;99.90;;;;;;5060270;28;20324;-68
2022/02/07 05:52:32;;;;;;;9.15;1.20;;;2.90;99.90;;;;;;5059776;28;20086;-68
2022/02/07 05:55:00;;;;;;;7.97;1.17;;;2.90;99.90;;;;;;5041370;28;20052;-68
2022/02/07 05:57:27;;;;;;;3.47;0.98;;;2.90;99.90;;;;;;5059155;28;20021;-68
2022/02/07 05:59:54;;;;;;;5.28;1.00;;;2.90;99.90;;;;;;5058161;28;20091;-68
2022/02/07 06:02:22;;;;;;;3.28;0.93;;;2.90;99.90;;;;;;5058129;28;20021;-67
2022/02/07 06:04:49;;;;;;;5.20;1.33;;;2.90;99.90;;;;;;5040395;28;20324;-68
2022/02/07 06:07:18;;;;;;;6.43;0.98;;;2.90;99.90;;;;;;5058740;28;20302;-68
2022/02/07 06:09:46;;;;;;;6.50;1.00;;;2.90;99.90;;;;;;5058227;28;20309;-67
2022/02/07 06:12:13;;;;;;;6.90;1.30;;;2.80;99.90;;;;;;5058003;28;20024;-68
2022/02/07 06:14:40;;;;;;;4.57;0.70;;;2.80;99.90;;;;;;5059807;28;20060;-68
2022/02/07 06:17:08;;;;;;;7.90;0.93;;;2.80;99.90;;;;;;5057264;28;20040;-68
2022/02/07 06:19:36;;;;;;;3.92;0.80;;;2.90;99.90;;;;;;5058073;28;20144;-68
2022/02/07 06:22:04;;;;;;;6.40;1.45;;;2.90;99.90;;;;;;5058739;28;20417;-68
2022/02/07 06:24:31;;;;;;;9.65;1.13;;;2.90;99.90;;;;;;5058628;28;20024;-68
2022/02/07 06:26:58;;;;;;;4.90;0.80;;;3.00;99.90;;;;;;5041078;28;20032;-68
2022/02/07 06:29:26;;;;;;;1.88;0.40;;;3.00;99.90;;;;;;5058953;28;20028;-68
2022/02/07 06:31:54;;;;;;;3.13;0.60;;;3.00;99.90;;;;;;5059006;28;20025;-67
2022/02/07 06:34:21;;;;;;;9.05;0.90;;;3.10;99.90;;;;;;5058944;28;20025;-68
2022/02/07 06:36:50;;;;;;;4.55;1.05;;;3.10;99.90;;;;;;5040878;28;20021;-68
2022/02/07 06:39:17;;;;;;;4.72;1.45;;;3.10;99.90;;;;;;5058068;28;20021;-68
2022/02/07 06:41:46;;;;;;;5.15;1.25;;;3.10;99.90;;;;;;5057364;28;20013;-68
2022/02/07 06:44:13;;;;;;;7.88;0.95;;;3.00;99.90;;;;;;5057308;28;20029;-68
2022/02/07 06:46:41;;;;;;;7.85;1.38;;;3.00;99.90;;;;;;5058025;28;20317;-68
2022/02/07 06:49:10;;;;;;;3.78;0.88;;;2.90;99.90;;;;;;5039530;28;20417;-68
2022/02/07 06:51:37;;;;;;;3.85;0.70;;;3.00;99.90;;;;;;5057782;28;20052;-68
2022/02/07 06:54:05;;;;;;;5.20;0.88;;;3.00;99.90;;;;;;5057664;28;20032;-68
2022/02/07 06:56:33;;;;;;;11.95;1.75;;;3.00;99.90;;;;;;5057179;28;20025;-67
2022/02/07 06:59:01;;;;;;;7.78;1.50;;;3.10;99.90;;;;;;5022850;28;20028;-68
2022/02/07 07:01:29;;;;;;;14.68;1.45;;;3.10;99.90;;;;;;5039297;28;20025;-67
2022/02/07 07:03:56;;;;;;;7.68;1.60;;;3.10;99.90;;;;;;5057657;28;20027;-68
2022/02/07 07:06:24;;;;;;;7.30;0.63;;;3.10;99.90;;;;;;5058471;28;20036;-70
2022/02/07 07:08:54;;;;;;;8.77;1.35;;;3.10;99.90;;;;;;5040025;28;20452;-71
2022/02/07 07:11:26;;;;;;;8.10;1.77;;;3.10;99.90;;;;;;5058493;28;20100;-72
2022/02/07 07:13:58;;;;;;;9.75;1.40;;;3.10;99.90;;;;;;5057884;28;20317;-71
2022/02/07 07:19:03;;;;;;;12.88;2.05;;;3.30;99.90;;;;;;5057943;28;20104;-69
2022/02/07 07:21:32;;;;;;;14.25;1.80;;;3.30;99.90;;;;;;5057650;28;20066;-69
2022/02/07 07:24:01;;;;;;;13.57;1.45;;;3.30;99.90;;;;;;5057231;28;20048;-70
2022/02/07 07:26:30;;;;;;;8.10;1.00;;;3.40;99.90;;;;;;5057037;28;20049;-71
2022/02/07 07:29:01;;;;;;;13.15;1.95;;;3.50;99.90;;;;;;5055568;28;20421;-69
2022/02/07 07:31:30;;;;;;;15.45;1.83;;;3.50;99.90;;;;;;5056325;28;20032;-70
2022/02/07 07:33:58;;;;;;;8.27;1.48;;;3.60;99.90;;;;;;5055290;28;20025;-72
2022/02/07 07:36:25;;;;;;;14.90;1.50;;;3.70;99.90;;;;;;5056935;28;20025;-71
2022/02/07 07:38:52;;;;;;;12.68;2.83;;;3.70;99.90;;;;;;5057086;28;20021;-71
2022/02/07 07:41:20;;;;;;;13.10;2.35;;;3.70;99.90;;;;;;5038807;28;20106;-72
2022/02/07 07:43:49;;;;;;;10.27;1.63;;;3.80;99.90;;;;;;5056371;28;20395;-72
2022/02/07 07:46:20;;;;;;;10.55;2.40;;;3.80;99.90;;;;;;5057816;28;20055;-73
2022/02/07 07:48:56;;;;;;;10.95;1.42;;;3.70;99.90;;;;;;5057781;28;20036;-72
2022/02/07 07:54:14;;;;;;;14.43;1.52;;;3.70;99.90;;;;;;5057234;28;20260;-69
2022/02/07 08:02:17;;;;;;;10.85;2.35;;;3.80;99.90;;;;;;5057339;28;20356;-68
2022/02/07 08:04:47;;;;;;;12.93;1.63;;;3.90;99.90;;;;;;5056921;28;20363;-70
2022/02/07 08:07:25;;;;;;;14.13;1.27;;;3.90;99.90;;;;;;5056148;28;20021;-68
2022/02/07 08:10:19;;;;;;;16.67;2.70;;;4.00;99.90;;;;;;5056121;28;20028;-70
2022/02/07 08:12:49;;;;;;;6.68;2.70;;;3.90;99.90;;;;;;5056160;28;20413;-69
2022/02/07 08:15:19;;;;;;;7.80;1.75;;;3.90;99.90;;;;;;5056000;28;20055;-69
2022/02/07 08:17:46;;;;;;;17.70;2.13;;;3.90;99.90;;;;;;5038369;28;20028;-69
2022/02/07 08:20:13;;;;;;;14.52;1.80;;;3.80;99.90;;;;;;5056643;28;20021;-67
2022/02/07 08:22:41;;;;;;;10.02;1.73;;;3.80;99.90;;;;;;5056235;28;20018;-71
2022/02/07 08:25:09;;;;;;;11.18;1.83;;;3.80;99.90;;;;;;5038292;28;20025;-66
2022/02/07 08:27:38;;;;;;;13.52;1.85;;;3.70;99.90;;;;;;5057223;28;20418;-67
2022/02/07 08:30:06;;;;;;;12.27;1.77;;;3.80;99.90;;;;;;5057395;28;20067;-68
2022/02/07 08:32:33;;;;;;;7.63;1.50;;;3.70;99.90;;;;;;5039400;28;20122;-68
2022/02/07 08:35:01;;;;;;;16.05;1.95;;;3.70;99.90;;;;;;5039035;28;20040;-67
2022/02/07 08:37:29;;;;;;;14.48;3.40;;;3.70;99.90;;;;;;5039164;28;20352;-67
2022/02/07 08:39:57;;;;;;;12.13;1.80;;;3.80;99.90;;;;;;5057224;28;20021;-67
2022/02/07 08:42:24;;;;;;;11.73;1.30;;;3.70;99.90;;;;;;5061299;28;20029;-67
2022/02/07 08:44:51;;;;;;;6.25;1.55;;;3.70;99.90;;;;;;5042867;28;20056;-66
2022/02/07 08:47:18;;;;;;;11.70;2.55;;;3.80;99.90;;;;;;5060045;28;20055;-67
2022/02/07 08:49:45;;;;;;;12.25;1.45;;;3.80;99.90;;;;;;5059981;28;20029;-67
2022/02/07 08:52:14;;;;;;;10.23;1.42;;;3.80;99.90;;;;;;5059438;28;20440;-67
2022/02/07 08:54:42;;;;;;;12.52;1.42;;;3.90;99.90;;;;;;5059345;28;20032;-67
2022/02/07 09:00:08;;;;;;;13.68;1.92;;;4.00;99.90;;;;;;5059243;28;20335;-67
2022/02/07 09:08:06;;;;;;;16.25;2.83;;;4.10;99.90;;;;;;5059535;28;20078;-67
2022/02/07 09:10:34;;;;;;;10.88;1.80;;;4.20;99.90;;;;;;5059793;28;20025;-67
2022/02/07 09:13:01;;;;;;;15.90;2.38;;;4.20;99.90;;;;;;5059953;28;20109;-67
2022/02/07 09:15:33;;;;;;;17.23;3.35;;;4.20;99.90;;;;;;5059942;28;20128;-67
2022/02/07 09:18:05;;;;;;;9.40;1.73;;;4.30;99.90;;;;;;5060589;28;20017;-67
2022/02/07 09:20:38;;;;;;;13.70;2.65;;;4.30;99.90;;;;;;5060372;28;20024;-68
2022/02/07 09:23:07;;;;;;;11.55;1.40;;;4.40;99.90;;;;;;5042351;28;20367;-66
2022/02/07 09:25:35;;;;;;;8.60;1.58;;;4.40;99.90;;;;;;5060402;28;20060;-67
2022/02/07 09:28:04;;;;;;;16.98;2.45;;;4.40;99.90;;;;;;5060268;28;20321;-67
2022/02/07 09:30:31;;;;;;;15.55;2.20;;;4.50;99.90;;;;;;5059053;28;20025;-67
2022/02/07 09:32:58;;;;;;;18.48;2.97;;;4.50;99.90;;;;;;5059714;28;20387;-67
2022/02/07 09:35:25;;;;;;;12.38;1.70;;;4.60;99.90;;;;;;5059211;28;20025;-69
2022/02/07 09:37:54;;;;;;;12.88;1.75;;;4.60;99.90;;;;;;5059130;28;20086;-69
2022/02/07 09:40:22;;;;;;;6.03;1.15;;;4.70;99.90;;;;;;5059128;28;20017;-69
2022/02/07 09:42:56;;;;;;;9.75;2.05;;;4.80;99.90;;;;;;5058350;28;20080;-67
2022/02/07 09:45:32;;;;;;;12.77;1.40;;;4.90;99.90;;;;;;5058168;28;20036;-68
2022/02/07 09:48:06;;;;;;;8.60;1.95;;;5.00;99.90;;;;;;5058148;28;20029;-68
2022/02/07 09:50:33;;;;;;;8.77;2.05;;;5.10;99.90;;;;;;5058332;28;20483;-70
2022/02/07 09:53:01;;;;;;;31.00;2.20;;;5.20;99.90;;;;;;5057895;28;20028;-68
2022/02/07 09:55:30;;;;;;;17.67;2.45;;;5.20;99.90;;;;;;5041602;28;20021;-68
2022/02/07 09:57:58;;;;;;;12.63;3.28;;;5.30;99.90;;;;;;5059136;28;20023;-68
2022/02/07 10:00:35;;;;;;;10.43;1.70;;;5.30;99.90;;;;;;5059032;28;20409;-66
2022/02/07 10:03:15;;;;;;;9.27;2.95;;;5.30;99.90;;;;;;5058911;28;20139;-67
2022/02/07 10:06:05;;;;;;;9.77;1.77;;;5.30;99.90;;;;;;5058700;28;20120;-67
2022/02/07 10:11:26;;;;;;;8.63;2.10;;;5.30;99.90;;;;;;5058771;28;20066;-70
2022/02/07 10:16:43;;;;;;;15.35;1.73;;;5.40;99.90;;;;;;5058098;28;20036;-67
2022/02/07 10:39:26;;;;;;;24.00;4.40;;;5.80;99.90;;;;;;5058607;28;20482;-67
2022/02/07 10:42:28;;;;;;;19.37;2.63;;;5.90;99.90;;;;;;5058935;28;20029;-67
2022/02/07 10:44:50;;;;;;;21.38;3.05;;;5.90;99.90;;;;;;5057913;28;20260;-67
2022/02/07 10:47:24;;;;;;;18.58;2.15;;;6.00;99.90;;;;;;5058709;28;20023;-67
2022/02/07 10:50:18;;;;;;;17.00;2.72;;;6.00;99.90;;;;;;5057901;28;20029;-67
2022/02/07 10:52:52;;;;;;;13.45;2.92;;;5.90;99.90;;;;;;5058016;28;20021;-67
2022/02/07 10:55:28;;;;;;;13.63;2.67;;;5.90;99.90;;;;;;5057235;28;20302;-67
2022/02/07 10:57:58;;;;;;;;;;;5.90;99.90;;;;;;5057792;28;20021;-66
2022/02/07 11:00:39;;;;;;;10.57;2.17;;;6.00;99.90;;;;;;5057254;28;19905;-66
2022/02/07 11:03:15;;;;;;;22.58;2.17;;;6.10;99.90;;;;;;5056837;28;20062;-66
2022/02/07 11:05:49;;;;;;;14.82;3.33;;;6.30;99.90;;;;;;5057252;28;20052;-67
2022/02/07 11:16:44;;;;;;;14.90;2.75;;;6.60;99.90;;;;;;5056680;28;20040;-67
2022/02/07 11:19:44;;;;;;;13.55;1.58;;;6.50;99.90;;;;;;5057598;28;20025;-67
2022/02/07 11:30:35;;;;;;;22.02;3.50;;;6.90;99.90;;;;;;5049677;28;20086;-68
2022/02/07 11:33:06;;;;;;;10.15;2.75;;;7.00;99.90;;;;;;5039640;28;20020;-68
2022/02/07 11:35:51;;;;;;;22.25;2.22;;;6.90;99.90;;;;;;5057444;28;20052;-68
2022/02/07 11:38:19;;;;;;;21.73;3.08;;;6.80;99.90;;;;;;5056452;28;20063;-66
2022/02/07 11:41:05;;;;;;;19.10;2.95;;;6.80;99.90;;;;;;5038653;28;20021;-67
2022/02/07 11:43:36;;;;;;;14.63;2.60;;;6.80;99.90;;;;;;5056436;28;20059;-68
2022/02/07 11:46:06;;;;;;;15.55;2.85;;;6.80;99.90;;;;;;5056533;28;20260;-68
2022/02/07 11:48:46;;;;;;;22.42;2.88;;;6.70;99.90;;;;;;5038671;28;20029;-68
2022/02/07 11:51:23;;;;;;;24.48;3.50;;;6.70;99.90;;;;;;5056442;28;20104;-65
2022/02/07 11:53:59;;;;;;;15.70;2.22;;;6.60;99.90;;;;;;5038711;28;20428;-66
2022/02/07 11:56:41;;;;;;;16.20;2.03;;;6.50;99.90;;;;;;5056159;28;20118;-66
2022/02/07 11:59:39;;;;;;;20.65;2.17;;;6.60;99.90;;;;;;5056172;28;20057;-67
2022/02/07 12:02:18;;;;;;;13.07;2.78;;;6.70;99.90;;;;;;5056983;28;20108;-67
2022/02/07 12:04:48;;;;;;;11.48;2.63;;;6.70;99.90;;;;;;5057119;28;20021;-67
2022/02/07 12:07:21;;;;;;;10.70;1.73;;;6.80;99.90;;;;;;5057235;28;20082;-66
2022/02/07 12:10:06;;;;;;;19.73;2.47;;;6.80;99.90;;;;;;5057621;28;20021;-69
2022/02/07 12:12:50;;;;;;;13.13;2.05;;;6.80;99.90;;;;;;5056974;28;20075;-69
2022/02/07 12:15:36;;;;;;;22.63;2.13;;;6.90;99.90;;;;;;5057582;28;20056;-68
2022/02/07 12:18:16;;;;;;;9.32;2.45;;;7.00;99.90;;;;;;5061006;28;20079;-68
2022/02/07 12:20:48;;;;;;;19.70;3.08;;;7.10;99.90;;;;;;5060702;28;20021;-68
2022/02/07 12:23:18;;;;;;;15.18;2.30;;;7.10;99.90;;;;;;5059830;28;20021;-68
2022/02/07 12:26:03;;;;;;;11.00;1.88;;;6.90;99.90;;;;;;5059034;28;20027;-68
2022/02/07 12:28:43;;;;;;;21.90;2.55;;;6.90;99.90;;;;;;5059973;28;20032;-76
2022/02/07 12:31:20;;;;;;;12.10;2.88;;;6.90;99.90;;;;;;5059574;28;20429;-69
2022/02/07 12:34:01;;;;;;;16.73;2.08;;;6.90;99.90;;;;;;5060362;28;20036;-66
2022/02/07 12:36:32;;;;;;;7.45;2.00;;;6.90;99.90;;;;;;5059697;28;20028;-67
2022/02/07 12:39:02;;;;;;;14.38;2.25;;;6.80;99.90;;;;;;5059774;28;20021;-66
2022/02/07 12:41:31;;;;;;;9.13;1.25;;;6.70;99.90;;;;;;5059652;28;20460;-69
2022/02/07 12:44:01;;;;;;;17.15;3.65;;;6.70;99.90;;;;;;5042872;28;20029;-69
2022/02/07 12:46:31;;;;;;;20.02;3.90;;;6.60;99.90;;;;;;5060520;28;20021;-69
2022/02/07 12:49:01;;;;;;;11.82;2.13;;;6.70;99.90;;;;;;5060983;28;20025;-69
2022/02/07 12:51:32;;;;;;;15.13;2.20;;;6.80;99.90;;;;;;5060828;28;20028;-67
2022/02/07 12:54:00;;;;;;;11.63;3.00;;;7.00;99.90;;;;;;5060402;28;20051;-73
2022/02/07 12:56:29;;;;;;;28.45;5.53;;;7.10;99.90;;;;;;5042517;28;20071;-68
2022/02/07 12:58:58;;;;;;;16.73;3.90;;;7.10;99.90;;;;;;5060159;28;20322;-66
2022/02/07 13:01:41;;;;;;;13.43;2.13;;;7.30;99.90;;;;;;5060225;28;20021;-68
2022/02/07 13:04:13;;;;;;;10.27;1.63;;;7.30;99.90;;;;;;5059259;28;20385;-67
2022/02/07 13:06:44;;;;;;;13.30;1.55;;;7.40;99.90;;;;;;5059316;28;20025;-68
2022/02/07 13:09:29;;;;;;;13.82;2.22;;;7.30;99.90;;;;;;5059166;28;20029;-66
2022/02/07 13:14:44;;;;;;;9.90;1.88;;;7.30;99.90;;;;;;5059066;28;20051;-66
2022/02/07 13:17:12;;;;;;;5.50;1.58;;;7.40;99.90;;;;;;5041690;28;20325;-66
2022/02/07 13:19:43;;;;;;;19.73;2.22;;;7.40;99.90;;;;;;5058984;28;20020;-65
2022/02/07 13:22:14;;;;;;;17.73;3.30;;;7.40;99.90;;;;;;5059049;28;20075;-65
2022/02/07 13:24:44;;;;;;;10.82;1.20;;;7.40;99.90;;;;;;5059345;28;20025;-66
2022/02/07 13:27:14;;;;;;;8.93;2.25;;;7.40;99.90;;;;;;5058734;28;20021;-66
2022/02/07 13:29:48;;;;;;;7.43;1.77;;;7.40;99.90;;;;;;5059685;28;20471;-66
2022/02/07 13:32:18;;;;;;;5.93;0.95;;;7.40;99.90;;;;;;5059655;28;20053;-66
2022/02/07 13:34:48;;;;;;;11.18;2.55;;;7.50;99.90;;;;;;5059936;28;20017;-65
2022/02/07 13:37:30;;;;;;;8.68;1.42;;;7.60;99.90;;;;;;5059557;28;20039;-68
2022/02/07 13:40:01;;;;;;;10.32;1.30;;;7.60;99.90;;;;;;5059725;28;20099;-68
2022/02/07 13:42:41;;;;;;;13.32;2.40;;;7.70;99.90;;;;;;5060192;28;20021;-67
2022/02/07 13:45:11;;;;;;;7.32;2.90;;;7.60;99.90;;;;;;5059059;28;20071;-68
2022/02/07 13:47:43;;;;;;;12.00;2.15;;;7.60;99.90;;;;;;5058477;28;20070;-67
2022/02/07 13:50:16;;;;;;;14.15;2.20;;;7.40;99.90;;;;;;5058369;28;20071;-68
2022/02/07 13:52:46;;;;;;;14.52;2.08;;;7.30;99.90;;;;;;5058422;28;20409;-67
2022/02/07 13:55:24;;;;;;;12.60;1.45;;;7.30;99.90;;;;;;5058539;28;20033;-68
2022/02/07 13:57:56;;;;;;;13.80;1.90;;;7.30;99.90;;;;;;5058819;28;20021;-66
2022/02/07 14:00:32;;;;;;;9.30;1.85;;;7.30;99.90;;;;;;5058169;28;20025;-67
2022/02/07 14:03:26;;;;;;;6.88;1.42;;;7.40;99.90;;;;;;5058207;28;20302;-70
2022/02/07 14:05:58;;;;;;;20.33;2.83;;;7.50;99.90;;;;;;5058615;28;20082;-70
2022/02/07 14:08:49;;;;;;;17.55;4.03;;;7.50;99.90;;;;;;5059373;28;20083;-69
2022/02/07 14:11:22;;;;;;;21.88;4.65;;;7.60;99.90;;;;;;5058796;28;20421;-67
2022/02/07 14:13:53;;;;;;;14.45;1.70;;;7.70;99.90;;;;;;5059054;28;20364;-68
2022/02/07 14:16:22;;;;;;;10.73;2.28;;;7.80;99.90;;;;;;5058988;28;20056;-67
2022/02/07 14:18:50;;;;;;;15.35;1.60;;;8.00;99.90;;;;;;5058851;28;20021;-67
2022/02/07 14:21:19;;;;;;;11.45;1.75;;;8.50;99.90;;;;;;5059045;28;20091;-68
2022/02/07 14:23:53;;;;;;;10.65;2.08;;;8.90;99.90;;;;;;5058723;28;20023;-67
2022/02/07 14:26:23;;;;;;;14.40;2.00;;;9.10;99.90;;;;;;5058631;28;20063;-67
2022/02/07 14:28:51;;;;;;;13.15;1.60;;;9.00;99.90;;;;;;5057612;28;20035;-70
2022/02/07 14:31:21;;;;;;;12.18;1.80;;;8.90;99.90;;;;;;5057524;28;20310;-70
2022/02/07 14:33:48;;;;;;;13.07;1.90;;;8.80;99.90;;;;;;5057653;28;20025;-70
2022/02/07 14:36:17;;;;;;;10.48;1.83;;;8.70;99.90;;;;;;5057546;28;20033;-68
2022/02/07 14:38:44;;;;;;;10.90;2.65;;;8.60;99.90;;;;;;5057054;28;20021;-69
2022/02/07 14:41:11;;;;;;;11.77;1.85;;;8.40;99.90;;;;;;5058041;28;20086;-69
2022/02/07 14:43:43;;;;;;;20.25;2.88;;;8.20;99.90;;;;;;5057436;28;20017;-68
2022/02/07 14:46:21;;;;;;;9.65;1.35;;;8.00;99.90;;;;;;5058063;28;20370;-68
2022/02/07 14:48:49;;;;;;;11.15;1.63;;;7.70;99.90;;;;;;5057652;28;20021;-68
2022/02/07 14:51:16;;;;;;;20.17;3.60;;;7.50;99.90;;;;;;5058757;28;20025;-67
2022/02/07 14:53:46;;;;;;;18.90;1.50;;;7.30;99.90;;;;;;5058132;28;20025;-67
2022/02/07 14:56:13;;;;;;;17.45;2.08;;;7.10;99.90;;;;;;5058111;28;20033;-67
2022/02/07 14:58:40;;;;;;;17.58;2.20;;;7.00;99.90;;;;;;5058267;28;20321;-68
2022/02/07 15:01:08;;;;;;;16.20;1.20;;;6.80;99.90;;;;;;5040314;28;20017;-67
2022/02/07 15:03:35;;;;;;;8.68;1.65;;;6.70;99.90;;;;;;5040313;28;20425;-67
2022/02/07 15:06:04;;;;;;;24.00;5.25;;;6.70;99.90;;;;;;5058520;28;20082;-67
2022/02/07 15:08:33;;;;;;;15.23;2.05;;;6.70;99.90;;;;;;5057874;28;20079;-67
2022/02/07 15:11:00;;;;;;;21.02;2.45;;;6.60;99.90;;;;;;5057519;28;20348;-68
2022/02/07 15:13:33;;;;;;;13.65;2.58;;;6.50;99.90;;;;;;5056925;28;20020;-67
2022/02/07 15:16:02;;;;;;;13.20;1.55;;;6.40;99.90;;;;;;5056470;28;20049;-67
2022/02/07 15:18:29;;;;;;;6.93;1.50;;;6.30;99.90;;;;;;5056837;28;20021;-69
2022/02/07 15:21:01;;;;;;;9.35;2.25;;;6.20;99.90;;;;;;5057574;28;20045;-68
2022/02/07 15:23:31;;;;;;;9.32;1.45;;;6.20;99.90;;;;;;5056681;28;20021;-67
2022/02/07 15:26:01;;;;;;;11.48;2.28;;;6.20;99.90;;;;;;5056646;28;20104;-67
2022/02/07 15:28:29;;;;;;;7.50;1.42;;;6.20;99.90;;;;;;5056880;28;20021;-66
2022/02/07 15:30:57;;;;;;;7.90;1.48;;;6.20;99.90;;;;;;5057445;28;20104;-67
2022/02/07 15:33:33;;;;;;;12.20;1.77;;;6.30;99.90;;;;;;5057447;28;20116;-66
2022/02/07 15:36:02;;;;;;;9.00;1.80;;;6.30;99.90;;;;;;5057862;28;20048;-66
2022/02/07 15:38:33;;;;;;;11.20;1.48;;;6.40;99.90;;;;;;5057302;28;20029;-66
2022/02/07 15:41:02;;;;;;;14.25;2.00;;;6.40;99.90;;;;;;5057438;28;20480;-66
2022/02/07 15:43:29;;;;;;;8.27;2.05;;;6.40;99.90;;;;;;5039700;28;20112;-66
2022/02/07 15:45:58;;;;;;;13.77;1.38;;;6.30;99.90;;;;;;5057229;28;20067;-66
2022/02/07 15:48:26;;;;;;;8.68;1.55;;;6.30;99.90;;;;;;5057509;28;20036;-66
2022/02/07 15:50:58;;;;;;;5.18;1.35;;;6.20;99.90;;;;;;5056358;28;20060;-66